createdAt,value
2018-01-21T00:00:18.331Z,37.55
2018-01-21T00:02:46.083Z,34.65
2018-01-21T00:05:13.924Z,34.92
2018-01-21T00:07:41.793Z,37.08
2018-01-21T00:10:09.657Z,35.17
2018-01-21T00:12:37.484Z,36.78
2018-01-21T00:15:05.302Z,38.08
2018-01-21T00:17:33.111Z,35.15
2018-01-21T00:20:00.933Z,34.58
2018-01-21T00:22:34.934Z,34.55
2018-01-21T00:25:02.743Z,34.75
2018-01-21T00:27:30.555Z,34.08
2018-01-21T00:29:58.367Z,35.75
2018-01-21T00:32:26.176Z,33.47
2018-01-21T00:34:53.995Z,33.80
2018-01-21T00:37:21.831Z,32.85
2018-01-21T00:39:49.655Z,34.00
2018-01-21T00:42:17.623Z,35.38
2018-01-21T00:44:45.463Z,33.22
2018-01-21T00:47:13.333Z,35.60
2018-01-21T00:49:41.161Z,34.72
2018-01-21T00:52:09.000Z,32.58
2018-01-21T00:54:36.849Z,34.20
2018-01-21T00:57:04.691Z,34.58
2018-01-21T00:59:32.613Z,33.42
2018-01-21T01:02:00.459Z,30.23
2018-01-21T01:04:28.297Z,34.97
2018-01-21T01:06:56.119Z,33.10
2018-01-21T01:09:23.947Z,33.38
2018-01-21T01:11:51.767Z,36.53
2018-01-21T01:14:19.577Z,33.60
2018-01-21T01:16:47.406Z,34.92
2018-01-21T01:19:15.215Z,37.40
2018-01-21T01:21:43.054Z,35.92
2018-01-21T01:24:10.882Z,34.85
2018-01-21T01:26:38.702Z,36.38
2018-01-21T01:29:06.512Z,37.15
2018-01-21T01:31:34.322Z,35.08
2018-01-21T01:34:02.126Z,36.13
2018-01-21T01:36:29.962Z,37.20
2018-01-21T01:38:57.824Z,35.95
2018-01-21T01:41:25.643Z,32.92
2018-01-21T01:43:53.467Z,35.83
2018-01-21T01:46:21.275Z,35.78
2018-01-21T01:48:53.941Z,34.35
2018-01-21T01:51:21.743Z,35.35
2018-01-21T01:53:49.560Z,35.53
2018-01-21T01:56:17.370Z,35.80
2018-01-21T01:58:45.195Z,35.30
2018-01-21T02:01:13.012Z,35.53
2018-01-21T02:03:40.823Z,31.75
2018-01-21T02:06:08.623Z,34.47
2018-01-21T02:08:36.450Z,34.17
2018-01-21T02:11:04.260Z,34.75
2018-01-21T02:13:32.095Z,35.53
2018-01-21T02:15:59.931Z,30.20
2018-01-21T02:18:27.726Z,34.85
2018-01-21T02:20:55.570Z,35.25
2018-01-21T02:23:23.408Z,35.90
2018-01-21T02:25:51.202Z,33.78
2018-01-21T02:28:19.011Z,32.50
2018-01-21T02:30:46.835Z,28.92
2018-01-21T02:33:14.647Z,28.83
2018-01-21T02:35:42.459Z,33.92
2018-01-21T02:38:10.279Z,29.65
2018-01-21T02:40:38.188Z,31.87
2018-01-21T02:43:05.963Z,29.80
2018-01-21T02:45:33.791Z,33.13
2018-01-21T02:48:01.593Z,30.30
2018-01-21T02:50:29.443Z,31.65
2018-01-21T02:52:57.249Z,33.08
2018-01-21T02:55:25.080Z,30.45
2018-01-21T02:57:52.894Z,30.48
2018-01-21T03:00:20.711Z,28.77
2018-01-21T03:02:48.744Z,32.05
2018-01-21T03:05:16.585Z,32.83
2018-01-21T03:07:44.437Z,32.15
2018-01-21T03:10:12.279Z,32.00
2018-01-21T03:12:40.094Z,30.98
2018-01-21T03:15:07.952Z,30.20
2018-01-21T03:17:35.778Z,31.85
2018-01-21T03:20:03.603Z,30.20
2018-01-21T03:22:31.407Z,30.23
2018-01-21T03:24:59.276Z,29.12
2018-01-21T03:27:27.098Z,29.83
2018-01-21T03:29:54.912Z,29.37
2018-01-21T03:32:22.733Z,32.35
2018-01-21T03:34:50.555Z,31.05
2018-01-21T03:37:18.384Z,31.33
2018-01-21T03:39:46.178Z,34.00
2018-01-21T03:42:14.008Z,31.87
2018-01-21T03:44:41.820Z,31.23
2018-01-21T03:47:09.638Z,31.42
2018-01-21T03:49:37.471Z,30.85
2018-01-21T03:52:05.303Z,32.45
2018-01-21T03:54:33.168Z,32.13
2018-01-21T03:57:00.991Z,29.92
2018-01-21T03:59:28.803Z,31.42
2018-01-21T04:01:56.628Z,33.25
2018-01-21T04:04:24.439Z,30.37
2018-01-21T04:06:52.245Z,31.95
2018-01-21T04:09:20.055Z,34.10
2018-01-21T04:11:47.868Z,34.47
2018-01-21T04:14:15.695Z,33.40
2018-01-21T04:16:43.524Z,30.33
2018-01-21T04:19:11.341Z,34.17
2018-01-21T04:21:39.183Z,34.05
2018-01-21T04:24:07.001Z,33.70
2018-01-21T04:26:34.815Z,31.85
2018-01-21T04:29:02.669Z,33.50
2018-01-21T04:31:30.496Z,33.53
2018-01-21T04:33:58.310Z,32.95
2018-01-21T04:36:26.919Z,31.80
2018-01-21T04:38:54.747Z,30.60
2018-01-21T04:41:22.579Z,31.62
2018-01-21T04:43:50.400Z,30.23
2018-01-21T04:46:18.251Z,31.02
2018-01-21T04:48:46.100Z,31.12
2018-01-21T04:51:13.934Z,32.83
2018-01-21T04:53:41.755Z,33.33
2018-01-21T04:56:09.571Z,32.33
2018-01-21T04:58:37.406Z,34.08
2018-01-21T05:01:05.223Z,33.45
2018-01-21T05:03:33.084Z,32.97
2018-01-21T05:06:00.884Z,31.10
2018-01-21T05:08:28.719Z,32.67
2018-01-21T05:10:56.520Z,33.88
2018-01-21T05:13:24.324Z,28.58
2018-01-21T05:15:52.144Z,32.78
2018-01-21T05:18:19.972Z,31.10
2018-01-21T05:20:47.775Z,34.17
2018-01-21T05:23:15.600Z,34.28
2018-01-21T05:25:43.416Z,32.88
2018-01-21T05:28:11.243Z,31.35
2018-01-21T05:30:39.051Z,32.97
2018-01-21T05:33:06.870Z,34.10
2018-01-21T05:35:34.684Z,33.00
2018-01-21T05:38:02.495Z,34.67
2018-01-21T05:40:30.312Z,35.58
2018-01-21T05:42:58.149Z,34.20
2018-01-21T05:45:25.981Z,35.50
2018-01-21T05:47:53.779Z,34.15
2018-01-21T05:50:21.622Z,35.63
2018-01-21T05:52:49.438Z,34.33
2018-01-21T05:55:17.279Z,34.53
2018-01-21T05:57:45.107Z,34.15
2018-01-21T06:00:12.951Z,35.83
2018-01-21T06:02:40.755Z,35.47
2018-01-21T06:05:08.563Z,36.30
2018-01-21T06:07:36.375Z,35.90
2018-01-21T06:10:04.196Z,37.95
2018-01-21T06:12:32.015Z,36.58
2018-01-21T06:14:59.839Z,33.72
2018-01-21T06:17:27.668Z,36.20
2018-01-21T06:19:55.506Z,36.63
2018-01-21T06:22:23.319Z,34.75
2018-01-21T06:24:51.167Z,36.03
2018-01-21T06:27:18.996Z,37.30
2018-01-21T06:29:46.819Z,34.40
2018-01-21T06:32:14.629Z,38.17
2018-01-21T06:34:42.455Z,38.03
2018-01-21T06:37:10.272Z,33.67
2018-01-21T06:39:38.461Z,33.30
2018-01-21T06:42:06.261Z,37.65
2018-01-21T06:44:34.081Z,42.22
2018-01-21T06:47:01.922Z,37.38
2018-01-21T06:49:29.743Z,40.10
2018-01-21T06:51:57.567Z,39.35
2018-01-21T06:54:25.399Z,40.03
2018-01-21T06:56:53.223Z,40.78
2018-01-21T06:59:21.032Z,41.63
2018-01-21T07:01:48.844Z,41.33
2018-01-21T07:04:16.691Z,38.05
2018-01-21T07:06:44.512Z,39.15
2018-01-21T07:09:12.331Z,38.08
2018-01-21T07:11:40.143Z,38.97
2018-01-21T07:14:07.946Z,39.08
2018-01-21T07:16:35.757Z,37.95
2018-01-21T07:19:03.682Z,37.38
2018-01-21T07:21:31.545Z,36.58
2018-01-21T07:23:59.343Z,40.63
2018-01-21T07:26:27.159Z,40.78
2018-01-21T07:28:55.020Z,44.67
2018-01-21T07:31:22.933Z,43.90
2018-01-21T07:33:50.737Z,49.83
2018-01-21T07:36:18.557Z,37.70
2018-01-21T07:38:46.375Z,48.42
2018-01-21T07:41:14.189Z,41.88
2018-01-21T07:43:42.002Z,40.92
2018-01-21T07:46:09.812Z,42.10
2018-01-21T07:48:37.625Z,47.55
2018-01-21T07:51:05.502Z,47.45
2018-01-21T07:53:33.320Z,50.28
2018-01-21T07:56:01.123Z,42.20
2018-01-21T07:58:28.928Z,40.70
2018-01-21T08:00:56.744Z,48.53
2018-01-21T08:03:24.579Z,40.72
2018-01-21T08:05:52.402Z,40.63
2018-01-21T08:08:20.291Z,45.50
2018-01-21T08:10:48.118Z,42.90
2018-01-21T08:13:15.949Z,37.35
2018-01-21T08:15:43.795Z,41.25
2018-01-21T08:18:11.631Z,36.97
2018-01-21T08:20:39.458Z,39.45
2018-01-21T08:23:07.287Z,42.13
2018-01-21T08:25:35.340Z,36.08
2018-01-21T08:28:03.225Z,38.67
2018-01-21T08:30:31.108Z,36.60
2018-01-21T08:32:58.941Z,42.72
2018-01-21T08:35:32.848Z,36.60
2018-01-21T08:38:06.662Z,38.90
2018-01-21T08:40:40.505Z,39.67
2018-01-21T08:43:08.367Z,45.72
2018-01-21T08:45:36.208Z,44.80
2018-01-21T08:48:04.055Z,39.22
2018-01-21T08:50:31.863Z,40.70
2018-01-21T08:52:59.696Z,40.28
2018-01-21T08:55:27.519Z,39.22
2018-01-21T08:57:55.355Z,37.78
2018-01-21T09:00:26.853Z,40.20
2018-01-21T09:02:54.663Z,40.45
2018-01-21T09:05:22.486Z,40.85
2018-01-21T09:07:50.320Z,43.75
2018-01-21T09:10:18.155Z,40.35
2018-01-21T09:12:45.975Z,40.83
2018-01-21T09:15:13.811Z,39.63
2018-01-21T09:17:41.636Z,41.03
2018-01-21T09:20:09.623Z,42.13
2018-01-21T09:22:37.488Z,36.28
2018-01-21T09:25:05.313Z,38.80
2018-01-21T09:27:33.155Z,39.50
2018-01-21T09:30:00.985Z,41.37
2018-01-21T09:32:28.787Z,40.70
2018-01-21T09:34:56.608Z,42.35
2018-01-21T09:37:24.419Z,43.30
2018-01-21T09:39:52.246Z,42.38
2018-01-21T09:42:20.048Z,39.53
2018-01-21T09:44:47.884Z,38.28
2018-01-21T09:47:15.702Z,43.40
2018-01-21T09:49:43.509Z,38.88
2018-01-21T09:52:11.367Z,40.12
2018-01-21T09:54:39.175Z,40.90
2018-01-21T09:57:07.034Z,42.22
2018-01-21T09:59:34.827Z,40.25
2018-01-21T10:02:02.646Z,40.45
2018-01-21T10:04:30.438Z,41.83
2018-01-21T10:06:58.255Z,39.70
2018-01-21T10:09:26.065Z,37.85
2018-01-21T10:11:53.879Z,39.45
2018-01-21T10:14:21.752Z,38.70
2018-01-21T10:16:49.592Z,38.65
2018-01-21T10:19:17.415Z,36.42
2018-01-21T10:21:45.406Z,36.60
2018-01-21T10:24:13.507Z,36.33
2018-01-21T10:26:41.328Z,37.40
2018-01-21T10:29:09.139Z,40.33
2018-01-21T10:31:36.996Z,39.47
2018-01-21T10:34:04.779Z,38.72
2018-01-21T10:36:32.601Z,37.03
2018-01-21T10:39:00.399Z,41.45
2018-01-21T10:41:28.219Z,39.00
2018-01-21T10:43:56.028Z,35.33
2018-01-21T10:46:23.851Z,41.63
2018-01-21T10:48:51.708Z,41.53
2018-01-21T10:51:19.563Z,37.95
2018-01-21T10:53:47.387Z,38.67
2018-01-21T10:56:15.214Z,36.83
2018-01-21T10:58:43.082Z,38.30
2018-01-21T11:01:10.925Z,39.03
2018-01-21T11:03:38.792Z,42.15
2018-01-21T11:06:06.621Z,40.53
2018-01-21T11:08:34.484Z,39.03
2018-01-21T11:11:02.319Z,38.15
2018-01-21T11:13:30.173Z,40.38
2018-01-21T11:15:57.988Z,40.10
2018-01-21T11:18:25.804Z,41.28
2018-01-21T11:20:53.611Z,38.83
2018-01-21T11:23:21.431Z,39.28
2018-01-21T11:25:49.240Z,38.40
2018-01-21T11:28:17.051Z,38.55
2018-01-21T11:30:44.872Z,35.80
2018-01-21T11:33:12.686Z,35.50
2018-01-21T11:35:40.504Z,35.00
2018-01-21T11:38:08.327Z,32.88
2018-01-21T11:40:36.147Z,37.58
2018-01-21T11:43:04.033Z,32.60
2018-01-21T11:45:31.855Z,32.55
2018-01-21T11:47:59.678Z,36.05
2018-01-21T11:50:27.510Z,33.58
2018-01-21T11:52:55.332Z,34.13
2018-01-21T11:55:23.158Z,33.42
2018-01-21T11:57:51.035Z,35.90
2018-01-21T12:00:18.863Z,32.65
2018-01-21T12:02:46.671Z,36.47
2018-01-21T12:05:14.480Z,39.55
2018-01-21T12:07:42.291Z,39.83
2018-01-21T12:10:10.128Z,36.45
2018-01-21T12:12:38.545Z,37.88
2018-01-21T12:15:06.383Z,37.35
2018-01-21T12:17:34.199Z,38.30
2018-01-21T12:20:02.019Z,36.65
2018-01-21T12:22:29.823Z,34.30
2018-01-21T12:24:57.660Z,36.30
2018-01-21T12:27:25.471Z,35.75
2018-01-21T12:29:53.322Z,39.42
2018-01-21T12:32:21.151Z,36.53
2018-01-21T12:34:48.979Z,35.45
2018-01-21T12:37:16.781Z,32.65
2018-01-21T12:39:44.608Z,33.83
2018-01-21T12:42:12.468Z,35.47
2018-01-21T12:44:40.283Z,33.85
2018-01-21T12:47:08.091Z,33.75
2018-01-21T12:49:35.910Z,36.83
2018-01-21T12:52:03.723Z,36.38
2018-01-21T12:54:31.533Z,36.20
2018-01-21T12:56:59.354Z,36.13
2018-01-21T12:59:27.172Z,36.80
2018-01-21T13:01:54.971Z,36.08
2018-01-21T13:04:22.783Z,35.40
2018-01-21T13:06:50.591Z,35.95
2018-01-21T13:09:18.414Z,35.50
2018-01-21T13:11:46.228Z,33.65
2018-01-21T13:14:14.042Z,32.60
2018-01-21T13:16:41.860Z,36.75
2018-01-21T13:19:09.680Z,35.00
2018-01-21T13:21:37.503Z,33.47
2018-01-21T13:24:05.295Z,32.83
2018-01-21T13:26:33.097Z,36.55
2018-01-21T13:29:00.899Z,34.20
2018-01-21T13:31:28.712Z,33.92
2018-01-21T13:33:56.536Z,35.13
2018-01-21T13:36:24.412Z,34.80
2018-01-21T13:38:52.227Z,32.95
2018-01-21T13:41:20.064Z,35.95
2018-01-21T13:43:47.891Z,32.50
2018-01-21T13:46:15.736Z,33.85
2018-01-21T13:48:43.531Z,35.17
2018-01-21T13:51:11.325Z,34.05
2018-01-21T13:53:39.148Z,34.10
2018-01-21T13:56:06.964Z,35.95
2018-01-21T13:58:34.770Z,33.33
2018-01-21T14:01:02.591Z,32.17
2018-01-21T14:03:30.415Z,35.50
2018-01-21T14:05:58.245Z,34.10
2018-01-21T14:08:26.067Z,32.30
2018-01-21T14:10:53.871Z,32.25
2018-01-21T14:13:21.692Z,38.67
2018-01-21T14:15:49.522Z,39.47
2018-01-21T14:18:17.356Z,39.30
2018-01-21T14:20:45.165Z,40.50
2018-01-21T14:23:13.027Z,38.38
2018-01-21T14:25:40.844Z,32.55
2018-01-21T14:28:08.716Z,34.33
2018-01-21T14:30:36.500Z,35.67
2018-01-21T14:33:04.323Z,36.70
2018-01-21T14:35:32.132Z,38.92
2018-01-21T14:38:00.017Z,39.15
2018-01-21T14:40:27.872Z,38.55
2018-01-21T14:42:55.732Z,36.53
2018-01-21T14:45:23.551Z,36.40
2018-01-21T14:47:51.370Z,36.95
2018-01-21T14:50:19.185Z,40.05
2018-01-21T14:52:47.013Z,39.83
2018-01-21T14:55:14.843Z,39.97
2018-01-21T14:57:42.698Z,39.58
2018-01-21T15:00:10.536Z,38.38
2018-01-21T15:02:38.373Z,37.50
2018-01-21T15:05:06.192Z,38.47
2018-01-21T15:07:34.027Z,40.83
2018-01-21T15:10:02.130Z,42.45
2018-01-21T15:12:30.220Z,43.75
2018-01-21T15:14:58.209Z,42.95
2018-01-21T15:17:26.357Z,38.25
2018-01-21T15:19:54.303Z,42.05
2018-01-21T15:22:22.107Z,43.75
2018-01-21T15:24:50.764Z,42.08
2018-01-21T15:27:18.985Z,44.25
2018-01-21T15:29:46.807Z,41.63
2018-01-21T15:32:14.803Z,44.47
2018-01-21T15:34:42.612Z,41.75
2018-01-21T15:37:10.667Z,43.78
2018-01-21T15:39:38.887Z,43.17
2018-01-21T15:42:06.690Z,45.63
2018-01-21T15:44:34.524Z,43.30
2018-01-21T15:47:02.378Z,41.97
2018-01-21T15:49:30.204Z,44.40
2018-01-21T15:51:58.061Z,47.67
2018-01-21T15:54:25.888Z,46.85
2018-01-21T15:56:57.859Z,43.20
2018-01-21T15:59:32.220Z,44.28
2018-01-21T16:02:00.049Z,44.33
2018-01-21T16:04:27.852Z,41.67
2018-01-21T16:06:55.672Z,38.55
2018-01-21T16:09:23.487Z,41.88
2018-01-21T16:11:51.329Z,41.72
2018-01-21T16:14:19.115Z,40.42
2018-01-21T16:16:46.932Z,45.60
2018-01-21T16:19:14.747Z,39.83
2018-01-21T16:21:42.562Z,40.67
2018-01-21T16:24:10.390Z,38.22
2018-01-21T16:26:38.224Z,38.60
2018-01-21T16:29:14.822Z,38.03
2018-01-21T16:31:42.647Z,36.35
2018-01-21T16:34:10.455Z,39.08
2018-01-21T16:36:38.275Z,37.22
2018-01-21T16:39:12.680Z,40.55
2018-01-21T16:44:29.448Z,26.12
2018-01-21T16:46:57.292Z,34.17
2018-01-21T16:49:25.114Z,33.35
2018-01-21T16:51:53.036Z,38.40
2018-01-21T16:54:20.843Z,35.15
2018-01-21T16:56:48.653Z,37.22
2018-01-21T16:59:16.453Z,35.53
2018-01-21T17:01:44.337Z,39.05
2018-01-21T17:04:12.147Z,37.13
2018-01-21T17:06:39.949Z,41.30
2018-01-21T17:09:07.747Z,39.30
2018-01-21T17:11:35.572Z,41.15
2018-01-21T17:14:08.636Z,26.42
2018-01-21T17:16:36.430Z,40.30
2018-01-21T17:19:04.275Z,36.92
2018-01-21T17:21:32.186Z,32.75
2018-01-21T17:23:59.999Z,25.30
2018-01-21T17:26:27.815Z,34.28
2018-01-21T17:28:55.646Z,37.80
2018-01-21T17:31:23.480Z,36.67
2018-01-21T17:33:51.399Z,30.50
2018-01-21T17:36:19.349Z,30.00
2018-01-21T17:41:35.996Z,26.17
2018-01-21T17:44:03.904Z,25.20
2018-01-21T17:46:31.715Z,27.30
2018-01-21T17:48:59.581Z,20.48
2018-01-21T17:51:27.403Z,19.05
2018-01-21T17:53:55.267Z,24.45
2018-01-21T17:56:23.103Z,25.33
2018-01-21T17:58:52.704Z,26.98
2018-01-21T18:01:24.867Z,25.60
2018-01-21T18:03:52.696Z,28.20
2018-01-21T18:06:20.739Z,27.58
2018-01-21T18:11:28.610Z,29.35
2018-01-21T18:16:30.173Z,29.40
2018-01-21T18:18:58.159Z,26.12
2018-01-21T18:21:26.040Z,27.20
2018-01-21T18:23:53.869Z,32.45
2018-01-21T18:26:21.692Z,28.98
2018-01-21T18:28:51.547Z,30.17
2018-01-21T18:31:19.484Z,27.08
2018-01-21T18:33:47.544Z,27.87
2018-01-21T18:36:15.734Z,29.92
2018-01-21T18:38:50.552Z,30.08
2018-01-21T18:41:18.380Z,28.42
2018-01-21T18:43:46.197Z,28.70
2018-01-21T18:46:14.076Z,23.80
2018-01-21T18:48:41.938Z,26.65
2018-01-21T18:54:04.945Z,27.05
2018-01-21T18:56:39.764Z,28.00
2018-01-21T18:59:07.652Z,26.95
2018-01-21T19:01:36.892Z,30.48
2018-01-21T19:04:05.086Z,30.70
2018-01-21T19:06:32.950Z,31.45
2018-01-21T19:09:00.832Z,26.48
2018-01-21T19:11:28.700Z,26.80
2018-01-21T19:13:56.577Z,28.60
2018-01-21T19:16:24.460Z,27.77
2018-01-21T19:18:52.320Z,26.02
2018-01-21T19:21:20.211Z,29.17
2018-01-21T19:23:48.084Z,33.95
2018-01-21T19:26:15.930Z,30.02
2018-01-21T19:34:50.383Z,30.27
2018-01-21T20:38:47.394Z,28.60
2018-01-21T23:26:42.419Z,26.05
